Time,TemperatureF,DewpointF,PressureIn,WindDirection,WindDirectionDegrees,WindSpeedMPH,WindSpeedGustMPH,Humidity,HourlyPrecipIn,Conditions,Clouds,dailyrainin,SoftwareType,DateUTC
2013-01-12 00:02:00,41.3,37.4,30.10,SW,215,0.0,0.0,86,0.00,,---,0.00,VWS V14.01,2013-01-12 08:02:00,
2013-01-12 00:07:00,41.2,37.6,30.10,SW,215,0.0,0.0,87,0.00,,---,0.00,VWS V14.01,2013-01-12 08:07:00,
2013-01-12 00:12:00,40.9,37.3,30.10,SW,215,0.0,0.0,87,0.00,,---,0.00,VWS V14.01,2013-01-12 08:12:00,
2013-01-12 00:17:00,40.8,37.5,30.10,SW,215,0.0,0.0,88,0.00,,---,0.00,VWS V14.01,2013-01-12 08:17:00,
2013-01-12 00:22:00,40.5,37.2,30.10,SW,215,0.0,0.0,88,0.00,,---,0.00,VWS V14.01,2013-01-12 08:22:00,
2013-01-12 00:27:00,40.3,37.3,30.10,SW,215,0.0,0.0,89,0.00,,---,0.00,VWS V14.01,2013-01-12 08:27:00,
2013-01-12 00:32:00,40.1,36.8,30.10,SW,215,0.0,0.0,88,0.00,,---,0.00,VWS V14.01,2013-01-12 08:32:00,
2013-01-12 00:37:00,39.8,36.5,30.10,SW,215,0.0,0.0,88,0.00,,---,0.00,VWS V14.01,2013-01-12 08:37:00,
2013-01-12 00:42:00,39.5,36.5,30.10,SW,215,0.0,0.0,89,0.00,,---,0.00,VWS V14.01,2013-01-12 08:42:00,
2013-01-12 00:47:00,39.5,36.5,30.10,SW,215,0.0,0.0,89,0.00,,---,0.00,VWS V14.01,2013-01-12 08:47:00,
2013-01-12 00:52:00,39.3,36.6,30.10,SW,215,0.0,0.0,90,0.00,,---,0.00,VWS V14.01,2013-01-12 08:52:00,
2013-01-12 00:57:00,39.5,36.8,30.10,SW,215,0.0,0.0,90,0.00,,---,0.00,VWS V14.01,2013-01-12 08:57:00,
2013-01-12 01:02:00,39.6,36.9,30.11,SW,215,0.0,0.0,90,0.00,,---,0.00,VWS V14.01,2013-01-12 09:02:00,
2013-01-12 01:07:00,39.6,36.9,30.11,SSW,209,0.0,0.0,90,0.00,,---,0.00,VWS V14.01,2013-01-12 09:07:00,
2013-01-12 01:13:00,39.6,36.9,30.11,SE,132,0.0,0.0,90,0.00,,---,0.00,VWS V14.01,2013-01-12 09:13:00,
2013-01-12 01:18:00,39.2,36.2,30.11,SE,132,0.0,0.0,89,0.00,,---,0.00,VWS V14.01,2013-01-12 09:18:00,
2013-01-12 01:23:00,38.8,35.8,30.11,SE,132,0.0,0.0,89,0.00,,---,0.00,VWS V14.01,2013-01-12 09:23:00,
2013-01-12 01:28:00,38.5,35.5,30.11,SE,132,0.0,0.0,89,0.00,,---,0.00,VWS V14.01,2013-01-12 09:28:00,
2013-01-12 01:33:00,38.2,35.5,30.12,SE,132,0.0,0.0,90,0.00,,---,0.00,VWS V14.01,2013-01-12 09:33:00,
2013-01-12 01:38:00,38.5,36.1,30.12,SE,135,0.0,0.0,91,0.00,,---,0.00,VWS V14.01,2013-01-12 09:38:00,
2013-01-12 01:43:00,38.6,35.9,30.12,ESE,103,0.0,0.0,90,0.00,,---,0.00,VWS V14.01,2013-01-12 09:43:00,
2013-01-12 01:48:00,38.5,35.8,30.12,ESE,103,0.0,0.0,90,0.00,,---,0.00,VWS V14.01,2013-01-12 09:48:00,
2013-01-12 01:53:00,38.5,35.8,30.12,ESE,103,0.0,0.0,90,0.00,,---,0.00,VWS V14.01,2013-01-12 09:53:00,
2013-01-12 01:58:00,38.5,36.1,30.12,ESE,103,0.0,0.0,91,0.00,,---,0.00,VWS V14.01,2013-01-12 09:58:00,
2013-01-12 02:03:00,38.6,36.2,30.12,ESE,103,0.0,0.0,91,0.00,,---,0.00,VWS V14.01,2013-01-12 10:03:00,
2013-01-12 02:08:00,38.5,35.8,30.12,ESE,103,0.0,0.0,90,0.00,,---,0.00,VWS V14.01,2013-01-12 10:08:00,
2013-01-12 02:13:00,38.5,35.8,30.12,ESE,103,0.0,0.0,90,0.00,,---,0.00,VWS V14.01,2013-01-12 10:13:00,
2013-01-12 02:18:00,38.5,35.8,30.12,East,101,0.0,0.0,90,0.00,,---,0.00,VWS V14.01,2013-01-12 10:18:00,
2013-01-12 02:23:00,38.3,35.6,30.12,East,101,0.0,0.0,90,0.00,,---,0.00,VWS V14.01,2013-01-12 10:23:00,
2013-01-12 02:28:00,38.3,35.9,30.12,East,101,0.0,0.0,91,0.00,,---,0.00,VWS V14.01,2013-01-12 10:28:00,
2013-01-12 02:33:00,38.6,35.9,30.12,East,79,0.0,0.0,90,0.00,,---,0.00,VWS V14.01,2013-01-12 10:33:00,
2013-01-12 02:38:00,38.6,35.9,30.12,East,79,0.0,0.0,90,0.00,,---,0.00,VWS V14.01,2013-01-12 10:38:00,
2013-01-12 02:43:00,38.6,35.6,30.12,East,79,0.0,0.0,89,0.00,,---,0.00,VWS V14.01,2013-01-12 10:43:00,
2013-01-12 02:48:00,38.5,35.3,30.12,East,79,0.0,0.0,88,0.00,,---,0.00,VWS V14.01,2013-01-12 10:48:00,
2013-01-12 02:53:00,38.5,35.3,30.12,East,79,0.0,0.0,88,0.00,,---,0.00,VWS V14.01,2013-01-12 10:53:00,
2013-01-12 02:58:00,38.5,35.0,30.12,East,79,0.0,0.0,87,0.00,,---,0.00,VWS V14.01,2013-01-12 10:58:00,
2013-01-12 03:03:00,38.5,35.0,30.12,East,79,0.0,0.0,87,0.00,,---,0.00,VWS V14.01,2013-01-12 11:03:00,
2013-01-12 03:08:00,38.3,34.5,30.12,East,79,0.0,0.0,86,0.00,,---,0.00,VWS V14.01,2013-01-12 11:08:00,
2013-01-12 03:13:00,38.3,34.5,30.12,East,79,0.0,0.0,86,0.00,,---,0.00,VWS V14.01,2013-01-12 11:13:00,
2013-01-12 03:18:00,38.3,34.5,30.12,East,79,0.0,0.0,86,0.00,,---,0.00,VWS V14.01,2013-01-12 11:18:00,
2013-01-12 03:23:00,38.2,34.4,30.12,East,79,0.0,0.0,86,0.00,,---,0.00,VWS V14.01,2013-01-12 11:23:00,
2013-01-12 03:28:00,38.0,34.2,30.12,East,79,0.0,0.0,86,0.00,,---,0.00,VWS V14.01,2013-01-12 11:28:00,
2013-01-12 03:33:00,37.9,34.1,30.12,East,79,0.0,0.0,86,0.00,,---,0.00,VWS V14.01,2013-01-12 11:33:00,
2013-01-12 03:38:00,38.2,34.4,30.12,East,79,0.0,0.0,86,0.00,,---,0.00,VWS V14.01,2013-01-12 11:38:00,
2013-01-12 03:43:00,38.2,34.1,30.12,East,79,0.0,0.0,85,0.00,,---,0.00,VWS V14.01,2013-01-12 11:43:00,
2013-01-12 03:48:00,38.0,33.9,30.13,East,79,0.0,0.0,85,0.00,,---,0.00,VWS V14.01,2013-01-12 11:48:00,
2013-01-12 03:54:00,38.0,33.9,30.13,East,79,0.0,0.0,85,0.00,,---,0.00,VWS V14.01,2013-01-12 11:54:00,
2013-01-12 03:59:00,38.3,34.2,30.13,East,80,0.0,0.0,85,0.00,,---,0.00,VWS V14.01,2013-01-12 11:59:00,
2013-01-12 04:04:00,38.8,34.4,30.13,East,80,0.0,0.0,84,0.00,,---,0.00,VWS V14.01,2013-01-12 12:04:00,
2013-01-12 04:09:00,39.1,34.4,30.13,East,80,0.0,0.0,83,0.00,,---,0.00,VWS V14.01,2013-01-12 12:09:00,
2013-01-12 04:14:00,39.3,34.3,30.13,East,80,0.0,2.0,82,0.00,,---,0.00,VWS V14.01,2013-01-12 12:14:00,
2013-01-12 04:19:00,39.5,34.2,30.13,East,80,0.0,2.0,81,0.00,,---,0.00,VWS V14.01,2013-01-12 12:19:00,
2013-01-12 04:24:00,39.3,33.7,30.13,East,80,0.0,2.0,80,0.00,,---,0.00,VWS V14.01,2013-01-12 12:24:00,
2013-01-12 04:29:00,38.9,33.6,30.13,East,80,0.0,2.0,81,0.00,,---,0.00,VWS V14.01,2013-01-12 12:29:00,
2013-01-12 04:34:00,38.6,33.6,30.13,East,80,0.0,0.0,82,0.00,,---,0.00,VWS V14.01,2013-01-12 12:34:00,
2013-01-12 04:39:00,38.5,33.5,30.13,East,80,0.0,0.0,82,0.00,,---,0.00,VWS V14.01,2013-01-12 12:39:00,
2013-01-12 04:44:00,38.2,33.2,30.13,East,80,0.0,0.0,82,0.00,,---,0.00,VWS V14.01,2013-01-12 12:44:00,
2013-01-12 04:49:00,38.0,33.3,30.13,East,80,0.0,0.0,83,0.00,,---,0.00,VWS V14.01,2013-01-12 12:49:00,
2013-01-12 04:54:00,38.0,33.0,30.13,East,80,0.0,0.0,82,0.00,,---,0.00,VWS V14.01,2013-01-12 12:54:00,
2013-01-12 04:59:00,37.8,33.1,30.13,East,80,0.0,1.0,83,0.00,,---,0.00,VWS V14.01,2013-01-12 12:59:00,
2013-01-12 05:04:00,37.3,32.9,30.13,East,80,0.0,0.0,84,0.00,,---,0.00,VWS V14.01,2013-01-12 13:04:00,
2013-01-12 05:09:00,37.0,32.6,30.13,East,80,0.0,0.0,84,0.00,,---,0.00,VWS V14.01,2013-01-12 13:09:00,
2013-01-12 05:14:00,37.2,33.1,30.13,East,93,0.0,3.0,85,0.00,,---,0.00,VWS V14.01,2013-01-12 13:14:00,
2013-01-12 05:19:00,37.2,33.1,30.13,East,93,0.0,3.0,85,0.00,,---,0.00,VWS V14.01,2013-01-12 13:19:00,
2013-01-12 05:24:00,37.0,32.9,30.13,East,93,0.0,3.0,85,0.00,,---,0.00,VWS V14.01,2013-01-12 13:24:00,
2013-01-12 05:29:00,36.8,32.7,30.13,East,93,0.0,3.0,85,0.00,,---,0.00,VWS V14.01,2013-01-12 13:29:00,
2013-01-12 05:34:00,36.5,32.7,30.14,East,93,0.0,0.0,86,0.00,,---,0.00,VWS V14.01,2013-01-12 13:34:00,
2013-01-12 05:39:00,36.3,32.5,30.14,East,93,0.0,0.0,86,0.00,,---,0.00,VWS V14.01,2013-01-12 13:39:00,
2013-01-12 05:44:00,36.3,32.5,30.14,East,93,0.0,0.0,86,0.00,,---,0.00,VWS V14.01,2013-01-12 13:44:00,
2013-01-12 05:49:00,36.2,32.7,30.14,East,93,0.0,0.0,87,0.00,,---,0.00,VWS V14.01,2013-01-12 13:49:00,
2013-01-12 05:54:00,36.2,32.7,30.14,East,93,0.0,0.0,87,0.00,,---,0.00,VWS V14.01,2013-01-12 13:54:00,
2013-01-12 05:59:00,36.2,33.0,30.14,East,93,0.0,0.0,88,0.00,,---,0.00,VWS V14.01,2013-01-12 13:59:00,
2013-01-12 06:04:00,36.0,32.8,30.14,East,93,0.0,0.0,88,0.00,,---,0.00,VWS V14.01,2013-01-12 14:04:00,
2013-01-12 06:10:00,35.9,33.0,30.14,East,93,0.0,0.0,89,0.00,,---,0.00,VWS V14.01,2013-01-12 14:10:00,
2013-01-12 06:15:00,35.9,33.0,30.14,East,93,0.0,0.0,89,0.00,,---,0.00,VWS V14.01,2013-01-12 14:15:00,
2013-01-12 06:20:00,35.6,32.7,30.15,East,93,0.0,0.0,89,0.00,,---,0.00,VWS V14.01,2013-01-12 14:20:00,
2013-01-12 06:25:00,35.6,32.7,30.15,East,93,0.0,0.0,89,0.00,,---,0.00,VWS V14.01,2013-01-12 14:25:00,
2013-01-12 06:30:00,35.9,33.3,30.15,ENE,78,0.0,0.0,90,0.00,,---,0.00,VWS V14.01,2013-01-12 14:30:00,
2013-01-12 06:35:00,36.0,33.4,30.15,ENE,78,0.0,0.0,90,0.00,,---,0.00,VWS V14.01,2013-01-12 14:35:00,
2013-01-12 06:40:00,35.9,33.0,30.15,ENE,78,0.0,0.0,89,0.00,,---,0.00,VWS V14.01,2013-01-12 14:40:00,
2013-01-12 06:45:00,35.6,33.0,30.15,ENE,78,0.0,0.0,90,0.00,,---,0.00,VWS V14.01,2013-01-12 14:45:00,
2013-01-12 06:50:00,35.3,32.7,30.16,ENE,78,0.0,0.0,90,0.00,,---,0.00,VWS V14.01,2013-01-12 14:50:00,
2013-01-12 06:55:00,35.2,32.6,30.16,ENE,78,0.0,0.0,90,0.00,,---,0.00,VWS V14.01,2013-01-12 14:55:00,
2013-01-12 07:00:00,35.0,32.6,30.16,ENE,78,0.0,0.0,91,0.00,,---,0.00,VWS V14.01,2013-01-12 15:00:00,
2013-01-12 07:05:00,35.0,32.6,30.18,ENE,78,0.0,0.0,91,0.00,,---,0.00,VWS V14.01,2013-01-12 15:05:00,
2013-01-12 07:10:00,34.9,32.5,30.18,ENE,78,0.0,0.0,91,0.00,,---,0.00,VWS V14.01,2013-01-12 15:10:00,
2013-01-12 07:15:00,34.9,32.5,30.18,ENE,78,0.0,0.0,91,0.00,,---,0.00,VWS V14.01,2013-01-12 15:15:00,
2013-01-12 07:20:00,34.6,32.2,30.18,ENE,78,0.0,0.0,91,0.00,,---,0.00,VWS V14.01,2013-01-12 15:20:00,
2013-01-12 07:25:00,34.4,32.0,30.18,ENE,78,0.0,0.0,91,0.00,,---,0.00,VWS V14.01,2013-01-12 15:25:00,
2013-01-12 07:30:00,34.4,32.3,30.18,ENE,78,0.0,0.0,92,0.00,,---,0.00,VWS V14.01,2013-01-12 15:30:00,
2013-01-12 07:35:00,34.3,32.2,30.19,ENE,78,0.0,0.0,92,0.00,,---,0.00,VWS V14.01,2013-01-12 15:35:00,
2013-01-12 07:40:00,34.1,32.0,30.19,ENE,78,0.0,0.0,92,0.00,,---,0.00,VWS V14.01,2013-01-12 15:40:00,
2013-01-12 07:45:00,34.0,31.9,30.19,ENE,78,0.0,0.0,92,0.00,,---,0.00,VWS V14.01,2013-01-12 15:45:00,
2013-01-12 07:50:00,34.0,31.9,30.20,ENE,78,0.0,0.0,92,0.00,,---,0.00,VWS V14.01,2013-01-12 15:50:00,
2013-01-12 07:55:00,34.1,32.0,30.20,ENE,78,0.0,0.0,92,0.00,,---,0.00,VWS V14.01,2013-01-12 15:55:00,
2013-01-12 08:00:00,34.1,32.3,30.20,ENE,78,0.0,0.0,93,0.00,,---,0.00,VWS V14.01,2013-01-12 16:00:00,
2013-01-12 08:05:00,34.1,32.3,30.21,ENE,78,0.0,0.0,93,0.00,,---,0.00,VWS V14.01,2013-01-12 16:05:00,
2013-01-12 08:10:00,34.3,32.5,30.21,ENE,78,0.0,0.0,93,0.00,,---,0.00,VWS V14.01,2013-01-12 16:10:00,
2013-01-12 08:15:00,34.3,32.5,30.21,ENE,78,0.0,0.0,93,0.00,,---,0.00,VWS V14.01,2013-01-12 16:15:00,
2013-01-12 08:20:00,34.4,32.6,30.21,ENE,78,0.0,0.0,93,0.00,,---,0.00,VWS V14.01,2013-01-12 16:20:00,
2013-01-12 08:25:00,34.4,32.6,30.21,ENE,78,0.0,0.0,93,0.00,,---,0.00,VWS V14.01,2013-01-12 16:25:00,
2013-01-12 08:30:00,34.6,33.0,30.21,ENE,78,0.0,0.0,94,0.00,,---,0.00,VWS V14.01,2013-01-12 16:30:00,
2013-01-12 08:35:00,34.9,33.3,30.21,ENE,78,0.0,0.0,94,0.00,,---,0.00,VWS V14.01,2013-01-12 16:35:00,
2013-01-12 08:40:00,35.5,34.0,30.21,ENE,78,0.0,0.0,94,0.00,,---,0.00,VWS V14.01,2013-01-12 16:40:00,
2013-01-12 08:45:00,36.0,34.4,30.21,ENE,78,0.0,0.0,94,0.00,,---,0.00,VWS V14.01,2013-01-12 16:45:00,
2013-01-12 08:50:00,36.6,35.0,30.21,ENE,78,0.0,0.0,94,0.00,,---,0.00,VWS V14.01,2013-01-12 16:50:00,
2013-01-12 08:55:00,37.2,35.4,30.21,ENE,78,0.0,0.0,93,0.00,,---,0.00,VWS V14.01,2013-01-12 16:55:00,
2013-01-12 09:00:00,37.3,35.5,30.21,ENE,78,0.0,0.0,93,0.00,,---,0.00,VWS V14.01,2013-01-12 17:00:00,
2013-01-12 09:05:00,37.6,35.5,30.21,ENE,78,0.0,0.0,92,0.00,,---,0.00,VWS V14.01,2013-01-12 17:05:00,
2013-01-12 09:10:00,38.3,36.2,30.21,ENE,78,0.0,0.0,92,0.00,,---,0.00,VWS V14.01,2013-01-12 17:10:00,
2013-01-12 09:15:00,39.3,37.2,30.21,ENE,78,0.0,0.0,92,0.00,,---,0.00,VWS V14.01,2013-01-12 17:15:00,
2013-01-12 09:20:00,40.2,37.8,30.21,ENE,69,0.0,0.0,91,0.00,,---,0.00,VWS V14.01,2013-01-12 17:20:00,
2013-01-12 09:25:00,40.6,37.6,30.21,ENE,71,0.0,1.0,89,0.00,,---,0.00,VWS V14.01,2013-01-12 17:25:00,
2013-01-12 09:30:00,40.9,37.3,30.21,ENE,60,0.0,3.0,87,0.00,,---,0.00,VWS V14.01,2013-01-12 17:30:00,
2013-01-12 09:35:00,41.2,37.0,30.21,ENE,62,0.0,4.0,85,0.00,,---,0.00,VWS V14.01,2013-01-12 17:35:00,
2013-01-12 09:40:00,41.6,36.8,30.21,ENE,63,4.0,4.0,83,0.00,,---,0.00,VWS V14.01,2013-01-12 17:40:00,
2013-01-12 09:45:00,42.1,36.7,30.21,ENE,59,0.0,4.0,81,0.00,,---,0.00,VWS V14.01,2013-01-12 17:45:00,
2013-01-12 09:50:00,42.3,36.6,30.21,ENE,72,1.0,5.0,80,0.00,,---,0.00,VWS V14.01,2013-01-12 17:50:00,
2013-01-12 09:55:00,42.6,36.5,30.21,NE,50,4.0,6.0,79,0.00,,---,0.00,VWS V14.01,2013-01-12 17:55:00,
2013-01-12 10:00:00,42.8,36.4,30.21,ENE,68,0.0,6.0,78,0.00,,---,0.00,VWS V14.01,2013-01-12 18:00:00,
2013-01-12 10:05:00,43.1,36.4,30.21,ENE,63,0.0,3.0,77,0.00,,---,0.00,VWS V14.01,2013-01-12 18:05:00,
2013-01-12 10:10:00,43.3,36.3,30.21,ENE,63,0.0,4.0,76,0.00,,---,0.00,VWS V14.01,2013-01-12 18:10:00,
2013-01-12 10:15:00,43.5,36.1,30.21,ENE,61,4.0,4.0,75,0.00,,---,0.00,VWS V14.01,2013-01-12 18:15:00,
2013-01-12 10:20:00,43.5,35.8,30.21,ENE,64,0.0,4.0,74,0.00,,---,0.00,VWS V14.01,2013-01-12 18:20:00,
2013-01-12 10:25:00,43.8,36.1,30.21,NE,55,0.0,5.0,74,0.00,,---,0.00,VWS V14.01,2013-01-12 18:25:00,
2013-01-12 10:30:00,44.1,36.0,30.21,East,92,0.0,5.0,73,0.00,,---,0.00,VWS V14.01,2013-01-12 18:30:00,
2013-01-12 10:35:00,44.3,35.9,30.20,East,100,0.0,5.0,72,0.00,,---,0.00,VWS V14.01,2013-01-12 18:35:00,
2013-01-12 10:40:00,44.8,36.0,30.20,ESE,110,0.0,5.0,71,0.00,,---,0.00,VWS V14.01,2013-01-12 18:40:00,
2013-01-12 10:45:00,45.2,36.0,30.20,ENE,63,0.0,5.0,70,0.00,,---,0.00,VWS V14.01,2013-01-12 18:45:00,
2013-01-12 10:50:00,45.5,34.8,30.19,NE,39,0.0,5.0,66,0.00,,---,0.00,VWS V14.01,2013-01-12 18:50:00,
2013-01-12 10:55:00,45.8,35.5,30.19,NE,47,0.0,5.0,67,0.00,,---,0.00,VWS V14.01,2013-01-12 18:55:00,
2013-01-12 11:00:00,46.1,35.8,30.19,ENE,67,0.0,5.0,67,0.00,,---,0.00,VWS V14.01,2013-01-12 19:00:00,
2013-01-12 11:05:00,46.4,35.7,30.19,NNE,30,4.0,5.0,66,0.00,,---,0.00,VWS V14.01,2013-01-12 19:05:00,
2013-01-12 11:10:00,46.4,35.3,30.19,NNE,31,4.0,5.0,65,0.00,,---,0.00,VWS V14.01,2013-01-12 19:10:00,
2013-01-12 11:15:00,46.5,35.4,30.19,NE,53,1.0,5.0,65,0.00,,---,0.00,VWS V14.01,2013-01-12 19:15:00,
2013-01-12 11:20:00,46.7,34.8,30.19,NNE,30,0.0,5.0,63,0.00,,---,0.00,VWS V14.01,2013-01-12 19:20:00,
2013-01-12 11:25:00,47.0,35.5,30.19,NNE,30,1.0,5.0,64,0.00,,---,0.00,VWS V14.01,2013-01-12 19:25:00,
2013-01-12 11:30:00,47.0,34.7,30.19,NNE,27,0.0,5.0,62,0.00,,---,0.00,VWS V14.01,2013-01-12 19:30:00,
2013-01-12 11:35:00,47.1,34.8,30.18,ENE,64,2.0,3.0,62,0.00,,---,0.00,VWS V14.01,2013-01-12 19:35:00,
2013-01-12 11:40:00,47.3,35.0,30.18,NNE,31,0.0,4.0,62,0.00,,---,0.00,VWS V14.01,2013-01-12 19:40:00,
2013-01-12 11:45:00,47.4,34.2,30.18,North,9,3.0,7.0,60,0.00,,---,0.00,VWS V14.01,2013-01-12 19:45:00,
2013-01-12 11:50:00,47.7,34.9,30.17,North,360,0.0,7.0,61,0.00,,---,0.00,VWS V14.01,2013-01-12 19:50:00,
2013-01-12 11:55:00,48.2,35.4,30.17,NNE,17,0.0,7.0,61,0.00,,---,0.00,VWS V14.01,2013-01-12 19:55:00,
2013-01-12 12:00:00,48.2,34.1,30.16,North,5,3.0,7.0,58,0.00,,---,0.00,VWS V14.01,2013-01-12 20:00:00,
2013-01-12 12:05:00,48.3,34.2,30.16,North,5,0.0,0.0,58,0.00,,---,0.00,VWS V14.01,2013-01-12 20:05:00,
2013-01-12 12:10:00,48.5,33.5,30.16,NE,50,3.0,3.0,56,0.00,,---,0.00,VWS V14.01,2013-01-12 20:10:00,
2013-01-12 12:15:00,48.3,33.3,30.16,North,349,0.0,4.0,56,0.00,,---,0.00,VWS V14.01,2013-01-12 20:15:00,
2013-01-12 12:20:00,48.6,32.7,30.15,NNE,22,3.0,4.0,54,0.00,,---,0.00,VWS V14.01,2013-01-12 20:20:00,
2013-01-12 12:25:00,48.8,32.0,30.15,NNE,33,0.0,4.0,52,0.00,,---,0.00,VWS V14.01,2013-01-12 20:25:00,
2013-01-12 12:30:00,49.1,32.2,30.15,NNE,28,0.0,4.0,52,0.00,,---,0.00,VWS V14.01,2013-01-12 20:30:00,
2013-01-12 12:35:00,49.1,31.8,30.14,NE,47,0.0,2.0,51,0.00,,---,0.00,VWS V14.01,2013-01-12 20:35:00,
2013-01-12 12:40:00,49.5,33.1,30.14,NE,47,0.0,2.0,53,0.00,,---,0.00,VWS V14.01,2013-01-12 20:40:00,
2013-01-12 12:45:00,49.6,31.7,30.14,ENE,74,1.0,5.0,50,0.00,,---,0.00,VWS V14.01,2013-01-12 20:45:00,
2013-01-12 12:50:00,49.8,31.4,30.14,East,81,0.0,5.0,49,0.00,,---,0.00,VWS V14.01,2013-01-12 20:50:00,
2013-01-12 12:55:00,49.9,32.0,30.14,NE,46,0.0,5.0,50,0.00,,---,0.00,VWS V14.01,2013-01-12 20:55:00,
2013-01-12 13:00:00,49.9,32.0,30.14,NE,45,0.0,5.0,50,0.00,,---,0.00,VWS V14.01,2013-01-12 21:00:00,
2013-01-12 13:05:00,50.1,30.7,30.13,ENE,69,0.0,4.0,47,0.00,,---,0.00,VWS V14.01,2013-01-12 21:05:00,
2013-01-12 13:10:00,50.1,30.7,30.13,ENE,69,0.0,4.0,47,0.00,,---,0.00,VWS V14.01,2013-01-12 21:10:00,
2013-01-12 13:15:00,50.5,31.0,30.13,ENE,64,2.0,4.0,47,0.00,,---,0.00,VWS V14.01,2013-01-12 21:15:00,
2013-01-12 13:20:00,50.4,30.4,30.13,NE,49,0.0,4.0,46,0.00,,---,0.00,VWS V14.01,2013-01-12 21:20:00,
2013-01-12 13:25:00,50.4,31.0,30.13,ENE,60,0.0,4.0,47,0.00,,---,0.00,VWS V14.01,2013-01-12 21:25:00,
2013-01-12 13:31:00,50.4,31.0,30.12,ENE,61,0.0,4.0,47,0.00,,---,0.00,VWS V14.01,2013-01-12 21:31:00,
2013-01-12 13:36:00,50.4,31.0,30.12,ENE,61,0.0,2.0,47,0.00,,---,0.00,VWS V14.01,2013-01-12 21:36:00,
2013-01-12 13:41:00,50.7,31.7,30.12,ENE,61,0.0,2.0,48,0.00,,---,0.00,VWS V14.01,2013-01-12 21:41:00,
2013-01-12 13:46:00,51.4,31.3,30.12,West,269,1.0,2.0,46,0.00,,---,0.00,VWS V14.01,2013-01-12 21:46:00,
2013-01-12 13:51:00,52.2,31.0,30.12,WSW,258,0.0,4.0,44,0.00,,---,0.00,VWS V14.01,2013-01-12 21:51:00,
2013-01-12 13:56:00,52.5,32.3,30.12,West,273,2.0,7.0,46,0.00,,---,0.00,VWS V14.01,2013-01-12 21:56:00,
2013-01-12 14:01:00,52.8,31.5,30.12,WSW,243,0.0,7.0,44,0.00,,---,0.00,VWS V14.01,2013-01-12 22:01:00,
2013-01-12 14:06:00,52.8,29.8,30.12,WSW,243,0.0,0.0,41,0.00,,---,0.00,VWS V14.01,2013-01-12 22:06:00,
2013-01-12 14:11:00,52.0,30.8,30.12,ENE,60,0.0,3.0,44,0.00,,---,0.00,VWS V14.01,2013-01-12 22:11:00,
2013-01-12 14:16:00,52.2,30.4,30.12,East,91,0.0,3.0,43,0.00,,---,0.00,VWS V14.01,2013-01-12 22:16:00,
2013-01-12 14:21:00,52.3,29.9,30.12,East,91,0.0,3.0,42,0.00,,---,0.00,VWS V14.01,2013-01-12 22:21:00,
2013-01-12 14:26:00,52.2,30.4,30.12,ENE,70,2.0,3.0,43,0.00,,---,0.00,VWS V14.01,2013-01-12 22:26:00,
2013-01-12 14:31:00,51.6,29.3,30.12,ENE,60,0.0,3.0,42,0.00,,---,0.00,VWS V14.01,2013-01-12 22:31:00,
2013-01-12 14:36:00,51.4,30.2,30.12,ENE,60,0.0,0.0,44,0.00,,---,0.00,VWS V14.01,2013-01-12 22:36:00,
2013-01-12 14:41:00,51.4,30.2,30.12,ENE,60,0.0,0.0,44,0.00,,---,0.00,VWS V14.01,2013-01-12 22:41:00,
2013-01-12 14:46:00,51.7,30.5,30.11,ENE,60,0.0,0.0,44,0.00,,---,0.00,VWS V14.01,2013-01-12 22:46:00,
2013-01-12 14:51:00,52.6,31.3,30.11,ENE,60,0.0,1.0,44,0.00,,---,0.00,VWS V14.01,2013-01-12 22:51:00,
2013-01-12 14:56:00,53.6,31.1,30.11,West,280,0.0,3.0,42,0.00,,---,0.00,VWS V14.01,2013-01-12 22:56:00,
2013-01-12 15:01:00,54.2,31.6,30.11,West,280,0.0,3.0,42,0.00,,---,0.00,VWS V14.01,2013-01-12 23:01:00,
2013-01-12 15:06:00,54.2,31.6,30.11,West,280,0.0,0.0,42,0.00,,---,0.00,VWS V14.01,2013-01-12 23:06:00,
2013-01-12 15:11:00,54.2,31.0,30.11,WSW,251,0.0,0.0,41,0.00,,---,0.00,VWS V14.01,2013-01-12 23:11:00,
2013-01-12 15:16:00,54.2,32.8,30.10,WSW,248,0.0,0.0,44,0.00,,---,0.00,VWS V14.01,2013-01-12 23:16:00,
2013-01-12 15:21:00,53.6,32.8,30.10,West,269,0.0,4.0,45,0.00,,---,0.00,VWS V14.01,2013-01-12 23:21:00,
2013-01-12 15:26:00,53.1,32.9,30.10,WSW,253,2.0,7.0,46,0.00,,---,0.00,VWS V14.01,2013-01-12 23:26:00,
2013-01-12 15:31:00,52.3,31.0,30.10,WSW,252,3.0,8.0,44,0.00,,---,0.00,VWS V14.01,2013-01-12 23:31:00,
2013-01-12 15:36:00,51.7,32.7,30.10,WSW,257,5.0,5.0,48,0.00,,---,0.00,VWS V14.01,2013-01-12 23:36:00,
2013-01-12 15:41:00,51.4,31.9,30.10,WSW,252,3.0,5.0,47,0.00,,---,0.00,VWS V14.01,2013-01-12 23:41:00,
2013-01-12 15:46:00,51.0,32.5,30.10,West,275,0.0,9.0,49,0.00,,---,0.00,VWS V14.01,2013-01-12 23:46:00,
2013-01-12 15:51:00,51.0,33.0,30.10,SW,233,1.0,9.0,50,0.00,,---,0.00,VWS V14.01,2013-01-12 23:51:00,
2013-01-12 15:56:00,51.0,33.0,30.10,West,266,6.0,9.0,50,0.00,,---,0.00,VWS V14.01,2013-01-12 23:56:00,
2013-01-12 16:02:00,50.7,33.7,30.10,West,267,0.0,3.0,52,0.00,,---,0.00,VWS V14.01,2013-01-13 00:02:00,
2013-01-12 16:07:00,49.9,33.9,30.10,WSW,248,0.0,6.0,54,0.00,,---,0.00,VWS V14.01,2013-01-13 00:07:00,
2013-01-12 16:12:00,48.8,33.8,30.10,WSW,253,0.0,6.0,56,0.00,,---,0.00,VWS V14.01,2013-01-13 00:12:00,
2013-01-12 16:17:00,47.7,33.7,30.10,WSW,257,0.0,6.0,58,0.00,,---,0.00,VWS V14.01,2013-01-13 00:17:00,
2013-01-12 16:22:00,47.0,33.4,30.10,WSW,249,2.0,6.0,59,0.00,,---,0.00,VWS V14.01,2013-01-13 00:22:00,
2013-01-12 16:27:00,46.7,33.6,30.10,WSW,249,0.0,6.0,60,0.00,,---,0.00,VWS V14.01,2013-01-13 00:27:00,
2013-01-12 16:32:00,46.4,34.1,30.10,West,259,3.0,4.0,62,0.00,,---,0.00,VWS V14.01,2013-01-13 00:32:00,
2013-01-12 16:37:00,46.1,33.8,30.10,WSW,248,0.0,4.0,62,0.00,,---,0.00,VWS V14.01,2013-01-13 00:37:00,
2013-01-12 16:42:00,45.8,33.9,30.10,WSW,248,0.0,4.0,63,0.00,,---,0.00,VWS V14.01,2013-01-13 00:42:00,
2013-01-12 16:47:00,45.5,34.4,30.10,WSW,248,0.0,4.0,65,0.00,,---,0.00,VWS V14.01,2013-01-13 00:47:00,
2013-01-12 16:52:00,45.1,34.4,30.10,WSW,248,0.0,4.0,66,0.00,,---,0.00,VWS V14.01,2013-01-13 00:52:00,
2013-01-12 16:57:00,44.9,34.2,30.10,WSW,248,0.0,4.0,66,0.00,,---,0.00,VWS V14.01,2013-01-13 00:57:00,
2013-01-12 17:02:00,44.8,34.5,30.10,WSW,248,0.0,0.0,67,0.00,,---,0.00,VWS V14.01,2013-01-13 01:02:00,
2013-01-12 17:07:00,44.5,34.2,30.10,WSW,248,0.0,1.0,67,0.00,,---,0.00,VWS V14.01,2013-01-13 01:07:00,
2013-01-12 17:12:00,44.3,34.4,30.10,WSW,248,0.0,1.0,68,0.00,,---,0.00,VWS V14.01,2013-01-13 01:12:00,
2013-01-12 17:17:00,44.2,34.3,30.10,WSW,244,0.0,1.0,68,0.00,,---,0.00,VWS V14.01,2013-01-13 01:17:00,
2013-01-12 17:22:00,44.1,34.2,30.10,SW,229,0.0,1.0,68,0.00,,---,0.00,VWS V14.01,2013-01-13 01:22:00,
2013-01-12 17:27:00,43.6,34.5,30.10,SW,229,0.0,1.0,70,0.00,,---,0.00,VWS V14.01,2013-01-13 01:27:00,
2013-01-12 17:32:00,43.2,34.5,30.10,SW,229,0.0,0.0,71,0.00,,---,0.00,VWS V14.01,2013-01-13 01:32:00,
2013-01-12 17:37:00,43.1,34.3,30.10,SW,229,0.0,0.0,71,0.00,,---,0.00,VWS V14.01,2013-01-13 01:37:00,
2013-01-12 17:42:00,42.9,34.2,30.10,SW,229,0.0,0.0,71,0.00,,---,0.00,VWS V14.01,2013-01-13 01:42:00,
2013-01-12 17:47:00,42.8,34.4,30.10,SW,229,0.0,0.0,72,0.00,,---,0.00,VWS V14.01,2013-01-13 01:47:00,
2013-01-12 17:52:00,42.3,34.3,30.10,SW,229,0.0,0.0,73,0.00,,---,0.00,VWS V14.01,2013-01-13 01:52:00,
2013-01-12 17:57:00,41.9,34.2,30.10,SW,229,0.0,0.0,74,0.00,,---,0.00,VWS V14.01,2013-01-13 01:57:00,
2013-01-12 18:02:00,41.5,34.2,30.11,SW,229,0.0,0.0,75,0.00,,---,0.00,VWS V14.01,2013-01-13 02:02:00,
2013-01-12 18:07:00,41.2,34.2,30.11,SW,229,0.0,0.0,76,0.00,,---,0.00,VWS V14.01,2013-01-13 02:07:00,
2013-01-12 18:12:00,41.1,34.5,30.11,SW,229,0.0,0.0,77,0.00,,---,0.00,VWS V14.01,2013-01-13 02:12:00,
2013-01-12 18:17:00,41.1,34.5,30.11,SW,229,0.0,0.0,77,0.00,,---,0.00,VWS V14.01,2013-01-13 02:17:00,
2013-01-12 18:23:00,40.6,34.0,30.11,SW,229,0.0,0.0,77,0.00,,---,0.00,VWS V14.01,2013-01-13 02:23:00,
2013-01-12 18:28:00,40.5,34.2,30.11,SW,229,0.0,0.0,78,0.00,,---,0.00,VWS V14.01,2013-01-13 02:28:00,
2013-01-12 18:33:00,40.3,34.3,30.12,SW,229,0.0,0.0,79,0.00,,---,0.00,VWS V14.01,2013-01-13 02:33:00,
2013-01-12 18:38:00,40.3,34.6,30.12,SW,229,0.0,0.0,80,0.00,,---,0.00,VWS V14.01,2013-01-13 02:38:00,
2013-01-12 18:43:00,40.2,34.5,30.12,SW,229,0.0,0.0,80,0.00,,---,0.00,VWS V14.01,2013-01-13 02:43:00,
2013-01-12 18:48:00,40.1,34.4,30.11,SW,229,0.0,0.0,80,0.00,,---,0.00,VWS V14.01,2013-01-13 02:48:00,
2013-01-12 18:53:00,39.9,34.5,30.11,SW,229,0.0,0.0,81,0.00,,---,0.00,VWS V14.01,2013-01-13 02:53:00,
2013-01-12 18:58:00,39.8,34.8,30.11,SW,229,0.0,0.0,82,0.00,,---,0.00,VWS V14.01,2013-01-13 02:58:00,
2013-01-12 19:03:00,39.8,34.8,30.12,SW,229,0.0,0.0,82,0.00,,---,0.00,VWS V14.01,2013-01-13 03:03:00,
2013-01-12 19:08:00,39.9,34.9,30.12,ENE,71,0.0,1.0,82,0.00,,---,0.00,VWS V14.01,2013-01-13 03:08:00,
2013-01-12 19:13:00,40.3,34.6,30.12,ENE,73,0.0,1.0,80,0.00,,---,0.00,VWS V14.01,2013-01-13 03:13:00,
2013-01-12 19:18:00,40.6,34.6,30.12,ENE,73,0.0,1.0,79,0.00,,---,0.00,VWS V14.01,2013-01-13 03:18:00,
2013-01-12 19:23:00,40.8,34.5,30.12,East,90,0.0,5.0,78,0.00,,---,0.00,VWS V14.01,2013-01-13 03:23:00,
2013-01-12 19:28:00,40.8,33.2,30.12,East,90,0.0,5.0,74,0.00,,---,0.00,VWS V14.01,2013-01-13 03:28:00,
2013-01-12 19:33:00,41.1,32.4,30.12,NNE,31,0.0,0.0,71,0.00,,---,0.00,VWS V14.01,2013-01-13 03:33:00,
2013-01-12 19:38:00,41.2,31.5,30.12,NE,51,0.0,0.0,68,0.00,,---,0.00,VWS V14.01,2013-01-13 03:38:00,
2013-01-12 19:43:00,41.3,31.2,30.12,ENE,62,0.0,0.0,67,0.00,,---,0.00,VWS V14.01,2013-01-13 03:43:00,
2013-01-12 19:48:00,41.5,30.2,30.11,ENE,63,0.0,0.0,64,0.00,,---,0.00,VWS V14.01,2013-01-13 03:48:00,
2013-01-12 19:54:00,41.8,29.8,30.11,ENE,71,4.0,5.0,62,0.00,,---,0.00,VWS V14.01,2013-01-13 03:54:00,
2013-01-12 19:59:00,42.3,29.0,30.11,ENE,67,2.0,5.0,59,0.00,,---,0.00,VWS V14.01,2013-01-13 03:59:00,
2013-01-12 20:04:00,42.8,29.1,30.12,ENE,74,0.0,0.0,58,0.00,,---,0.00,VWS V14.01,2013-01-13 04:04:00,
2013-01-12 20:09:00,42.8,29.5,30.12,ENE,74,0.0,0.0,59,0.00,,---,0.00,VWS V14.01,2013-01-13 04:09:00,
2013-01-12 20:14:00,42.6,28.9,30.12,ESE,102,0.0,2.0,58,0.00,,---,0.00,VWS V14.01,2013-01-13 04:14:00,
2013-01-12 20:19:00,42.6,28.5,30.11,East,90,2.0,2.0,57,0.00,,---,0.00,VWS V14.01,2013-01-13 04:19:00,
2013-01-12 20:24:00,42.5,28.8,30.11,SE,132,0.0,4.0,58,0.00,,---,0.00,VWS V14.01,2013-01-13 04:24:00,
2013-01-12 20:29:00,42.2,28.9,30.11,SE,132,0.0,4.0,59,0.00,,---,0.00,VWS V14.01,2013-01-13 04:29:00,
2013-01-12 20:34:00,41.5,28.7,30.11,SE,132,0.0,0.0,60,0.00,,---,0.00,VWS V14.01,2013-01-13 04:34:00,
2013-01-12 20:39:00,40.9,28.5,30.11,SE,132,0.0,0.0,61,0.00,,---,0.00,VWS V14.01,2013-01-13 04:39:00,
2013-01-12 20:44:00,40.6,27.8,30.11,East,101,0.0,1.0,60,0.00,,---,0.00,VWS V14.01,2013-01-13 04:44:00,
2013-01-12 20:49:00,40.5,28.1,30.12,East,101,0.0,1.0,61,0.00,,---,0.00,VWS V14.01,2013-01-13 04:49:00,
2013-01-12 20:54:00,40.5,28.1,30.12,East,101,0.0,1.0,61,0.00,,---,0.00,VWS V14.01,2013-01-13 04:54:00,
2013-01-12 20:59:00,40.5,27.7,30.12,East,101,0.0,1.0,60,0.00,,---,0.00,VWS V14.01,2013-01-13 04:59:00,
2013-01-12 21:00:00,40.5,27.7,30.12,East,101,0.0,1.0,60,0.00,,---,0.00,VWS V14.01,2013-01-13 05:00:00,
2013-01-12 21:01:00,40.5,27.7,30.12,ENE,71,0.0,1.0,60,0.00,,---,0.00,VWS V14.01,2013-01-13 05:01:00,
2013-01-12 21:02:00,40.5,27.3,30.12,ENE,71,0.0,0.0,59,0.00,,---,0.00,VWS V14.01,2013-01-13 05:02:00,
2013-01-12 21:07:00,40.8,27.2,30.12,ESE,113,0.0,2.0,58,0.00,,---,0.00,VWS V14.01,2013-01-13 05:07:00,
2013-01-12 21:12:00,40.9,26.9,30.12,East,96,0.0,2.0,57,0.00,,---,0.00,VWS V14.01,2013-01-13 05:12:00,
2013-01-12 21:17:00,41.2,26.7,30.11,ESE,105,0.0,5.0,56,0.00,,---,0.00,VWS V14.01,2013-01-13 05:17:00,
2013-01-12 21:22:00,41.3,26.8,30.11,ENE,76,0.0,5.0,56,0.00,,---,0.00,VWS V14.01,2013-01-13 05:22:00,
2013-01-12 21:27:00,41.2,26.7,30.11,ENE,76,0.0,5.0,56,0.00,,---,0.00,VWS V14.01,2013-01-13 05:27:00,
2013-01-12 21:32:00,40.9,26.0,30.11,East,94,0.0,0.0,55,0.00,,---,0.00,VWS V14.01,2013-01-13 05:32:00,
2013-01-12 21:37:00,40.6,26.6,30.11,ESE,107,0.0,0.0,57,0.00,,---,0.00,VWS V14.01,2013-01-13 05:37:00,
2013-01-12 21:42:00,40.3,26.3,30.11,ESE,107,0.0,0.0,57,0.00,,---,0.00,VWS V14.01,2013-01-13 05:42:00,
2013-01-12 21:47:00,40.1,26.1,30.11,ESE,107,0.0,0.0,57,0.00,,---,0.00,VWS V14.01,2013-01-13 05:47:00,
2013-01-12 21:52:00,39.9,25.9,30.11,ESE,107,0.0,1.0,57,0.00,,---,0.00,VWS V14.01,2013-01-13 05:52:00,
2013-01-12 21:57:00,39.8,25.8,30.11,ENE,74,2.0,2.0,57,0.00,,---,0.00,VWS V14.01,2013-01-13 05:57:00,
2013-01-12 22:02:00,39.9,25.5,30.12,ENE,67,2.0,4.0,56,0.00,,---,0.00,VWS V14.01,2013-01-13 06:02:00,
2013-01-12 22:07:00,40.1,25.7,30.12,ENE,76,0.0,5.0,56,0.00,,---,0.00,VWS V14.01,2013-01-13 06:07:00,
2013-01-12 22:12:00,40.3,25.9,30.12,ENE,73,0.0,5.0,56,0.00,,---,0.00,VWS V14.01,2013-01-13 06:12:00,
2013-01-12 22:17:00,40.1,26.1,30.12,South,184,0.0,5.0,57,0.00,,---,0.00,VWS V14.01,2013-01-13 06:17:00,
2013-01-12 22:22:00,39.8,26.2,30.12,South,184,0.0,5.0,58,0.00,,---,0.00,VWS V14.01,2013-01-13 06:22:00,
2013-01-12 22:27:00,39.3,26.2,30.12,South,184,0.0,5.0,59,0.00,,---,0.00,VWS V14.01,2013-01-13 06:27:00,
2013-01-12 22:32:00,38.9,26.2,30.12,South,184,0.0,0.0,60,0.00,,---,0.00,VWS V14.01,2013-01-13 06:32:00,
2013-01-12 22:37:00,38.5,26.2,30.12,South,184,0.0,0.0,61,0.00,,---,0.00,VWS V14.01,2013-01-13 06:37:00,
2013-01-12 22:42:00,38.0,26.1,30.12,South,184,0.0,0.0,62,0.00,,---,0.00,VWS V14.01,2013-01-13 06:42:00,
2013-01-12 22:47:00,37.8,26.0,30.12,South,184,0.0,0.0,62,0.00,,---,0.00,VWS V14.01,2013-01-13 06:47:00,
2013-01-12 22:52:00,37.9,26.1,30.12,South,184,0.0,0.0,62,0.00,,---,0.00,VWS V14.01,2013-01-13 06:52:00,
2013-01-12 22:57:00,37.9,26.5,30.12,South,184,0.0,0.0,63,0.00,,---,0.00,VWS V14.01,2013-01-13 06:57:00,
2013-01-12 23:02:00,37.6,25.8,30.13,South,184,0.0,0.0,62,0.00,,---,0.00,VWS V14.01,2013-01-13 07:02:00,
2013-01-12 23:07:00,37.3,26.3,30.13,South,184,0.0,0.0,64,0.00,,---,0.00,VWS V14.01,2013-01-13 07:07:00,
2013-01-12 23:12:00,37.2,26.5,30.13,South,184,0.0,0.0,65,0.00,,---,0.00,VWS V14.01,2013-01-13 07:12:00,
2013-01-12 23:17:00,37.0,26.3,30.13,South,184,0.0,0.0,65,0.00,,---,0.00,VWS V14.01,2013-01-13 07:17:00,
2013-01-12 23:22:00,37.0,26.3,30.13,South,184,0.0,0.0,65,0.00,,---,0.00,VWS V14.01,2013-01-13 07:22:00,
2013-01-12 23:27:00,36.8,26.5,30.13,South,184,0.0,0.0,66,0.00,,---,0.00,VWS V14.01,2013-01-13 07:27:00,
2013-01-12 23:32:00,36.8,26.5,30.14,South,184,0.0,0.0,66,0.00,,---,0.00,VWS V14.01,2013-01-13 07:32:00,
2013-01-12 23:37:00,36.8,26.5,30.14,South,184,0.0,0.0,66,0.00,,---,0.00,VWS V14.01,2013-01-13 07:37:00,
2013-01-12 23:42:00,36.8,26.5,30.14,SSE,148,0.0,0.0,66,0.00,,---,0.00,VWS V14.01,2013-01-13 07:42:00,
2013-01-12 23:47:00,36.6,26.3,30.14,SSE,148,0.0,0.0,66,0.00,,---,0.00,VWS V14.01,2013-01-13 07:47:00,
2013-01-12 23:52:00,36.3,26.4,30.14,ESE,106,0.0,0.0,67,0.00,,---,0.00,VWS V14.01,2013-01-13 07:52:00,
2013-01-12 23:57:00,36.3,26.8,30.14,ESE,103,0.0,0.0,68,0.00,,---,0.00,VWS V14.01,2013-01-13 07:57:00,